Tiger — 9HA2271 — position and weather

sailwx.info

Track history (hours):
 
Tides and Currents Weather Stations Pressure Air Temp Water Temp Dewpoint Dewpoint Depression Visibility Wind Speed Wind Dir Waves Ship Positions

Tiger

Last reported at 2016-Aug-26 14:31 UTC. Time now 2016-Aug-27 18:49 UTC.
Position N 49°42' W 006°41'.

Length 231 m; draft 10.2 m.

Type: Cargo ship. MMSI: 248223000.

Date/timePositionNaut miles runAvg speedWind from/ knotsBaromVisibWave heightAir tempDewpointWater temp
2016-Aug-26 14:31N 49°42' W 006°41'6018.9
2016-Aug-26 11:19N 49°48' W 005°08'1418.6
2016-Aug-26 10:34N 49°50' W 004°47'2318.9
2016-Aug-26 09:20N 49°54' W 004°11'1519.4
2016-Aug-26 08:33N 49°56' W 003°48'2019.9
2016-Aug-26 07:34N 49°58' W 003°17'2120.4
2016-Aug-26 06:33N 50°02' W 002°46'5919.2
2016-Aug-26 03:28N 50°26' W 001°22'1516.5
2016-Aug-26 02:34N 50°33' W 001°01'10 9.7
2016-Aug-26 01:33N 50°43' W 001°01'1414.0
2016-Aug-26 00:33N 50°51' W 001°20'3 3.2
2016-Aug-25 23:28N 50°53' W 001°24'0 0.0
2016-Aug-25 22:28N 50°53' W 001°24'0 0.0
2016-Aug-25 21:22N 50°53' W 001°24'0 0.0
2016-Aug-25 20:31N 50°53' W 001°24'0 0.0
2016-Aug-25 19:31N 50°53' W 001°24'0 0.0
2016-Aug-25 18:31N 50°53' W 001°24'0 0.0
2016-Aug-25 17:31N 50°53' W 001°24'0 0.0
2016-Aug-25 16:31N 50°53' W 001°24'0 0.0
2016-Aug-25 15:31N 50°53' W 001°24'0 0.0
2016-Aug-25 14:31N 50°53' W 001°24'0 0.0
2016-Aug-25 13:31N 50°53' W 001°24'0 0.0
2016-Aug-25 12:31N 50°53' W 001°24'0 0.0
2016-Aug-25 11:31N 50°53' W 001°24'0 0.0
2016-Aug-25 10:31N 50°53' W 001°24'4 4.2
2016-Aug-25 09:33N 50°50' W 001°19'1110.7
2016-Aug-25 08:33N 50°44' W 001°05'10 9.6
2016-Aug-25 07:33N 50°38' W 000°54'1010.0
2016-Aug-25 06:33N 50°35' W 000°39'2613.1
2016-Aug-25 04:34N 50°31' E 000°02'1413.4
2016-Aug-25 03:33N 50°34' E 000°23'1212.4
2016-Aug-25 02:33N 50°39' E 000°40'1313.2
2016-Aug-25 01:33N 50°46' E 000°58'1514.7
2016-Aug-25 00:33N 50°54' E 001°17'1919.4
2016-Aug-24 23:33N 51°08' E 001°38'2019.6
2016-Aug-24 22:33N 51°23' E 001°58'1716.9
2016-Aug-24 21:34N 51°22' E 002°25'1616.0
2016-Aug-24 20:33N 51°22' E 002°51'1313.5
2016-Aug-24 19:34N 51°21' E 003°12'1 1.2
2016-Aug-24 18:34N 51°20' E 003°13'1 0.9
2016-Aug-24 17:31N 51°19' E 003°14'0 0.0
2016-Aug-24 16:31N 51°19' E 003°14'0 0.0
2016-Aug-24 15:31N 51°19' E 003°14'0 0.0
2016-Aug-24 14:31N 51°19' E 003°14'0 0.0
2016-Aug-24 13:31N 51°19' E 003°14'0 0.0
2016-Aug-24 12:31N 51°19' E 003°14'0 0.0
2016-Aug-24 11:33N 51°19' E 003°14'0 0.0
2016-Aug-24 10:31N 51°19' E 003°14'0 0.0
2016-Aug-24 09:31N 51°19' E 003°14'0 0.0
2016-Aug-24 08:31N 51°19' E 003°14'0 0.0
2016-Aug-24 07:31N 51°19' E 003°14'0 0.0
2016-Aug-24 06:31N 51°19' E 003°14'0 0.0
2016-Aug-24 04:31N 51°19' E 003°14'0 0.0
2016-Aug-24 03:31N 51°19' E 003°14'0 0.0
2016-Aug-24 02:31N 51°19' E 003°14'0 0.0
2016-Aug-24 01:31N 51°19' E 003°14'0 0.0
2016-Aug-24 00:34N 51°19' E 003°14'0 0.0
2016-Aug-23 23:31N 51°19' E 003°14'0 0.0
2016-Aug-23 22:31N 51°19' E 003°14'0 0.0
2016-Aug-23 21:34N 51°19' E 003°14'0 0.0
2016-Aug-23 20:34N 51°19' E 003°14'0 0.0
2016-Aug-23 19:31N 51°19' E 003°14'0 0.0
2016-Aug-23 18:34N 51°19' E 003°14'0 0.0
2016-Aug-23 17:31N 51°19' E 003°14'0 0.0
2016-Aug-23 16:31N 51°19' E 003°14'0 0.0
2016-Aug-23 15:31N 51°19' E 003°14'0 0.0
2016-Aug-23 14:31N 51°19' E 003°14'0 0.0
2016-Aug-23 13:31N 51°19' E 003°14'0 0.0
2016-Aug-23 12:31N 51°19' E 003°14'0 0.0
2016-Aug-23 11:31N 51°19' E 003°14'0 0.0
2016-Aug-23 10:34N 51°19' E 003°14'0 0.0
2016-Aug-23 09:33N 51°19' E 003°14'0 0.0
2016-Aug-23 08:34N 51°19' E 003°14'0 0.0
2016-Aug-23 07:34N 51°19' E 003°14'0 0.0
2016-Aug-23 06:33N 51°19' E 003°14'0 0.0
2016-Aug-23 05:31N 51°19' E 003°14'0 0.0
2016-Aug-23 04:34N 51°19' E 003°14'0 0.0
2016-Aug-23 03:34N 51°19' E 003°14'0 0.0
2016-Aug-23 02:34N 51°19' E 003°14'1 1.0
2016-Aug-23 01:31N 51°20' E 003°13'2 2.3
2016-Aug-23 00:34N 51°22' E 003°11'10 9.6
2016-Aug-22 23:33N 51°22' E 002°56'9 9.2
2016-Aug-22 22:34N 51°25' E 002°42'3 3.4
2016-Aug-22 21:34N 51°29' E 002°41'1 0.9
2016-Aug-22 20:33N 51°29' E 002°40'1 1.1
2016-Aug-22 19:34N 51°30' E 002°39'2 2.0
2016-Aug-22 18:34N 51°30' E 002°42'0 0.1
2016-Aug-22 17:34N 51°29' E 002°42'1 1.0
2016-Aug-22 16:33N 51°29' E 002°40'1 1.2
2016-Aug-22 15:33N 51°29' E 002°42'1 1.3
2016-Aug-22 14:34N 51°28' E 002°41'1 1.5
2016-Aug-22 13:33N 51°29' E 002°43'2 1.9
2016-Aug-22 12:34N 51°29' E 002°40'7 6.9
2016-Aug-22 11:33N 51°36' E 002°43'6 6.3
2016-Aug-22 10:33N 51°42' E 002°43'6 6.2
2016-Aug-22 09:33N 51°48' E 002°39'5 5.4
2016-Aug-22 08:34N 51°53' E 002°41'5 4.6
2016-Aug-22 07:33N 51°57' E 002°43'5 4.7
2016-Aug-22 06:27N 52°02' E 002°48'44 6.0
2016-Aug-21 23:04N 52°37' E 003°30'4 5.8
2016-Aug-21 22:26N 52°40' E 003°34'5 5.6
2016-Aug-21 21:33N 52°44' E 003°39'5 5.0
2016-Aug-21 20:33N 52°48' E 003°44'5 4.6
2016-Aug-21 19:33N 52°52' E 003°49'7 6.8
2016-Aug-21 18:33N 52°57' E 003°57'9 8.7
2016-Aug-21 17:33N 53°02' E 004°08'14 6.7
2016-Aug-21 15:29N 53°11' E 004°25'24 6.0
2016-Aug-21 11:32N 53°31' E 004°48'6 6.3
2016-Aug-21 10:33N 53°33' E 004°57'7 6.8
2016-Aug-21 09:34N 53°35' E 005°08'8 7.9
2016-Aug-21 08:34N 53°38' E 005°21'8 7.7
2016-Aug-21 07:34N 53°40' E 005°33'8 7.7
2016-Aug-21 06:34N 53°43' E 005°45'8 7.9
2016-Aug-21 05:33N 53°45' E 005°58'5 4.5
2016-Aug-21 04:33N 53°47' E 006°05'5 4.7
2016-Aug-21 03:34N 53°49' E 006°13'6 5.9
2016-Aug-21 02:33N 53°50' E 006°22'6 6.2
2016-Aug-21 01:33N 53°51' E 006°33'6 6.1
2016-Aug-21 00:33N 53°53' E 006°43'5 5.3
2016-Aug-20 23:33N 53°54' E 006°51'5 5.1
2016-Aug-20 22:33N 53°55' E 006°60'5 5.1
2016-Aug-20 21:33N 53°56' E 007°08'5 4.6
2016-Aug-20 20:33N 53°57' E 007°16'5 4.5
2016-Aug-20 19:34N 53°58' E 007°24'6 5.8
2016-Aug-20 18:34N 53°59' E 007°33'7 6.5
2016-Aug-20 17:33N 53°56' E 007°43'6 6.0
2016-Aug-20 16:33N 53°53' E 007°51'1716.7
2016-Aug-20 15:33N 53°44' E 008°15'1414.4
2016-Aug-20 14:34N 53°34' E 008°33'1 0.2
2016-Aug-20 09:06N 53°35' E 008°33'0 0.0
2016-Aug-20 06:24N 53°35' E 008°33'0 0.0
2016-Aug-20 03:30N 53°35' E 008°33'0 0.0
2016-Aug-20 01:18N 53°35' E 008°33'0 0.0
2016-Aug-20 00:30N 53°35' E 008°33'0 0.0
2016-Aug-19 23:18N 53°35' E 008°33'0 0.0
2016-Aug-19 21:24N 53°35' E 008°33'0 0.0
2016-Aug-19 20:24N 53°35' E 008°33'0 0.0
2016-Aug-19 13:24N 53°35' E 008°33'0 0.0
2016-Aug-19 11:18N 53°35' E 008°33'0 0.5
2016-Aug-19 10:33N 53°34' E 008°33'3 2.2
2016-Aug-19 09:25N 53°36' E 008°30'1213.8
2016-Aug-19 08:33N 53°44' E 008°15'1615.8
2016-Aug-19 07:33N 53°52' E 007°52'5 4.6
2016-Aug-19 06:33N 53°55' E 007°46'0 0.0
2016-Aug-19 05:30N 53°55' E 007°46'0 0.0
2016-Aug-19 04:30N 53°55' E 007°46'0 0.0
2016-Aug-19 03:33N 53°55' E 007°46'0 0.0
2016-Aug-19 02:33N 53°55' E 007°46'0 0.0
2016-Aug-19 01:33N 53°55' E 007°46'0 0.0
2016-Aug-19 00:33N 53°55' E 007°46'0 0.0
2016-Aug-18 23:33N 53°55' E 007°46'0 0.0
2016-Aug-18 22:33N 53°55' E 007°46'0 0.0
2016-Aug-18 21:33N 53°55' E 007°46'0 0.0
2016-Aug-18 20:33N 53°55' E 007°46'0 0.0
2016-Aug-18 19:33N 53°55' E 007°46'0 0.0
2016-Aug-18 18:30N 53°55' E 007°46'0 0.0
2016-Aug-18 17:33N 53°55' E 007°46'0 0.0
2016-Aug-18 16:30N 53°55' E 007°46'0 0.0
2016-Aug-18 15:33N 53°55' E 007°46'0 0.0
2016-Aug-18 14:33N 53°55' E 007°46'0 0.0
2016-Aug-18 13:33N 53°55' E 007°46'0 0.0
2016-Aug-18 12:30N 53°55' E 007°46'0 0.0
2016-Aug-18 11:33N 53°55' E 007°46'0 0.1
2016-Aug-18 10:30N 53°55' E 007°46'0 0.0
2016-Aug-18 09:33N 53°55' E 007°46'0 0.0
2016-Aug-18 08:30N 53°55' E 007°46'0 0.0
2016-Aug-18 07:33N 53°55' E 007°46'0 0.1
2016-Aug-18 06:33N 53°55' E 007°46'0 0.0
2016-Aug-18 05:30N 53°55' E 007°46'0 0.0
2016-Aug-18 04:33N 53°55' E 007°46'0 0.0
2016-Aug-18 03:33N 53°55' E 007°46'0 0.0
2016-Aug-18 02:30N 53°55' E 007°46'0 0.0
2016-Aug-18 01:33N 53°55' E 007°46'0 0.0
2016-Aug-18 00:33N 53°55' E 007°46'0 0.0
2016-Aug-17 23:33N 53°55' E 007°46'0 0.0
2016-Aug-17 22:33N 53°55' E 007°46'0 0.1
2016-Aug-17 21:30N 53°55' E 007°46'0 0.0
2016-Aug-17 20:33N 53°55' E 007°46'0 0.0
2016-Aug-17 19:33N 53°55' E 007°46'0 0.0
2016-Aug-17 18:30N 53°55' E 007°46'0 0.0
2016-Aug-17 17:30N 53°55' E 007°46'0 0.0
2016-Aug-17 16:30N 53°55' E 007°46'0 0.0
2016-Aug-17 15:33N 53°55' E 007°46'0 0.0
2016-Aug-17 14:30N 53°55' E 007°46'0 0.0
2016-Aug-17 13:30N 53°55' E 007°46'0 0.0
2016-Aug-17 12:30N 53°55' E 007°46'0 0.1
2016-Aug-17 11:33N 53°55' E 007°46'3 3.3
2016-Aug-17 10:33N 53°56' E 007°41'10 9.5
2016-Aug-17 09:33N 54°04' E 007°32'1010.2
2016-Aug-17 08:33N 54°13' E 007°24'1010.2
2016-Aug-17 07:33N 54°22' E 007°16'1211.7
2016-Aug-17 06:34N 54°33' E 007°07'1414.5
2016-Aug-17 05:33N 54°46' E 006°57'1110.6
2016-Aug-17 04:33N 54°55' E 006°48'1110.5
2016-Aug-17 03:33N 55°06' E 006°43'1010.5
2016-Aug-17 02:33N 55°16' E 006°43'1010.4
2016-Aug-17 01:33N 55°26' E 006°45'1010.4
2016-Aug-17 00:33N 55°37' E 006°45'1110.5
2016-Aug-16 23:33N 55°47' E 006°45'1110.7
2016-Aug-16 22:33N 55°58' E 006°45'1110.8
2016-Aug-16 21:33N 56°08' E 006°54'1111.0
2016-Aug-16 20:33N 56°17' E 007°06'1110.8
2016-Aug-16 19:34N 56°26' E 007°16'1110.6
2016-Aug-16 18:33N 56°35' E 007°27'1111.0
2016-Aug-16 17:33N 56°44' E 007°38'1110.8
2016-Aug-16 16:33N 56°53' E 007°48'1111.1
2016-Aug-16 15:33N 57°02' E 007°59'1111.0
2016-Aug-16 14:34N 57°12' E 008°09'  
Track history (hours):
 
Tides and Currents Weather Stations Pressure Air Temp Water Temp Dewpoint Dewpoint Depression Visibility Wind Speed Wind Dir Waves Ship Positions

Tiger

Last reported at 2016-Aug-26 14:31 UTC. Time now 2016-Aug-27 18:49 UTC.
Position N 49°42' W 006°41'.

Length 231 m; draft 10.2 m.

Type: Cargo ship. MMSI: 248223000.

Date/timePositionNaut miles runAvg speedWind from/ knotsBaromVisibWave heightAir tempDewpointWater temp
2016-Aug-26 14:31N 49°42' W 006°41'6018.9
2016-Aug-26 11:19N 49°48' W 005°08'1418.6
2016-Aug-26 10:34N 49°50' W 004°47'2318.9
2016-Aug-26 09:20N 49°54' W 004°11'1519.4
2016-Aug-26 08:33N 49°56' W 003°48'2019.9
2016-Aug-26 07:34N 49°58' W 003°17'2120.4
2016-Aug-26 06:33N 50°02' W 002°46'5919.2
2016-Aug-26 03:28N 50°26' W 001°22'1516.5
2016-Aug-26 02:34N 50°33' W 001°01'10 9.7
2016-Aug-26 01:33N 50°43' W 001°01'1414.0
2016-Aug-26 00:33N 50°51' W 001°20'3 3.2
2016-Aug-25 23:28N 50°53' W 001°24'0 0.0
2016-Aug-25 22:28N 50°53' W 001°24'0 0.0
2016-Aug-25 21:22N 50°53' W 001°24'0 0.0
2016-Aug-25 20:31N 50°53' W 001°24'0 0.0
2016-Aug-25 19:31N 50°53' W 001°24'0 0.0
2016-Aug-25 18:31N 50°53' W 001°24'0 0.0
2016-Aug-25 17:31N 50°53' W 001°24'0 0.0
2016-Aug-25 16:31N 50°53' W 001°24'0 0.0
2016-Aug-25 15:31N 50°53' W 001°24'0 0.0
2016-Aug-25 14:31N 50°53' W 001°24'0 0.0
2016-Aug-25 13:31N 50°53' W 001°24'0 0.0
2016-Aug-25 12:31N 50°53' W 001°24'0 0.0
2016-Aug-25 11:31N 50°53' W 001°24'0 0.0
2016-Aug-25 10:31N 50°53' W 001°24'4 4.2
2016-Aug-25 09:33N 50°50' W 001°19'1110.7
2016-Aug-25 08:33N 50°44' W 001°05'10 9.6
2016-Aug-25 07:33N 50°38' W 000°54'1010.0
2016-Aug-25 06:33N 50°35' W 000°39'2613.1
2016-Aug-25 04:34N 50°31' E 000°02'1413.4
2016-Aug-25 03:33N 50°34' E 000°23'1212.4
2016-Aug-25 02:33N 50°39' E 000°40'1313.2
2016-Aug-25 01:33N 50°46' E 000°58'1514.7
2016-Aug-25 00:33N 50°54' E 001°17'1919.4
2016-Aug-24 23:33N 51°08' E 001°38'2019.6
2016-Aug-24 22:33N 51°23' E 001°58'1716.9
2016-Aug-24 21:34N 51°22' E 002°25'1616.0
2016-Aug-24 20:33N 51°22' E 002°51'1313.5
2016-Aug-24 19:34N 51°21' E 003°12'1 1.2
2016-Aug-24 18:34N 51°20' E 003°13'1 0.9
2016-Aug-24 17:31N 51°19' E 003°14'0 0.0
2016-Aug-24 16:31N 51°19' E 003°14'0 0.0
2016-Aug-24 15:31N 51°19' E 003°14'0 0.0
2016-Aug-24 14:31N 51°19' E 003°14'0 0.0
2016-Aug-24 13:31N 51°19' E 003°14'0 0.0
2016-Aug-24 12:31N 51°19' E 003°14'0 0.0
2016-Aug-24 11:33N 51°19' E 003°14'0 0.0
2016-Aug-24 10:31N 51°19' E 003°14'0 0.0
2016-Aug-24 09:31N 51°19' E 003°14'0 0.0
2016-Aug-24 08:31N 51°19' E 003°14'0 0.0
2016-Aug-24 07:31N 51°19' E 003°14'0 0.0
2016-Aug-24 06:31N 51°19' E 003°14'0 0.0
2016-Aug-24 04:31N 51°19' E 003°14'0 0.0
2016-Aug-24 03:31N 51°19' E 003°14'0 0.0
2016-Aug-24 02:31N 51°19' E 003°14'0 0.0
2016-Aug-24 01:31N 51°19' E 003°14'0 0.0
2016-Aug-24 00:34N 51°19' E 003°14'0 0.0
2016-Aug-23 23:31N 51°19' E 003°14'0 0.0
2016-Aug-23 22:31N 51°19' E 003°14'0 0.0
2016-Aug-23 21:34N 51°19' E 003°14'0 0.0
2016-Aug-23 20:34N 51°19' E 003°14'0 0.0
2016-Aug-23 19:31N 51°19' E 003°14'0 0.0
2016-Aug-23 18:34N 51°19' E 003°14'0 0.0
2016-Aug-23 17:31N 51°19' E 003°14'0 0.0
2016-Aug-23 16:31N 51°19' E 003°14'0 0.0
2016-Aug-23 15:31N 51°19' E 003°14'0 0.0
2016-Aug-23 14:31N 51°19' E 003°14'0 0.0
2016-Aug-23 13:31N 51°19' E 003°14'0 0.0
2016-Aug-23 12:31N 51°19' E 003°14'0 0.0
2016-Aug-23 11:31N 51°19' E 003°14'0 0.0
2016-Aug-23 10:34N 51°19' E 003°14'0 0.0
2016-Aug-23 09:33N 51°19' E 003°14'0 0.0
2016-Aug-23 08:34N 51°19' E 003°14'0 0.0
2016-Aug-23 07:34N 51°19' E 003°14'0 0.0
2016-Aug-23 06:33N 51°19' E 003°14'0 0.0
2016-Aug-23 05:31N 51°19' E 003°14'0 0.0
2016-Aug-23 04:34N 51°19' E 003°14'0 0.0
2016-Aug-23 03:34N 51°19' E 003°14'0 0.0
2016-Aug-23 02:34N 51°19' E 003°14'1 1.0
2016-Aug-23 01:31N 51°20' E 003°13'2 2.3
2016-Aug-23 00:34N 51°22' E 003°11'10 9.6
2016-Aug-22 23:33N 51°22' E 002°56'9 9.2
2016-Aug-22 22:34N 51°25' E 002°42'3 3.4
2016-Aug-22 21:34N 51°29' E 002°41'1 0.9
2016-Aug-22 20:33N 51°29' E 002°40'1 1.1
2016-Aug-22 19:34N 51°30' E 002°39'2 2.0
2016-Aug-22 18:34N 51°30' E 002°42'0 0.1
2016-Aug-22 17:34N 51°29' E 002°42'1 1.0
2016-Aug-22 16:33N 51°29' E 002°40'1 1.2
2016-Aug-22 15:33N 51°29' E 002°42'1 1.3
2016-Aug-22 14:34N 51°28' E 002°41'1 1.5
2016-Aug-22 13:33N 51°29' E 002°43'2 1.9
2016-Aug-22 12:34N 51°29' E 002°40'7 6.9
2016-Aug-22 11:33N 51°36' E 002°43'6 6.3
2016-Aug-22 10:33N 51°42' E 002°43'6 6.2
2016-Aug-22 09:33N 51°48' E 002°39'5 5.4
2016-Aug-22 08:34N 51°53' E 002°41'5 4.6
2016-Aug-22 07:33N 51°57' E 002°43'5 4.7
2016-Aug-22 06:27N 52°02' E 002°48'44 6.0
2016-Aug-21 23:04N 52°37' E 003°30'4 5.8
2016-Aug-21 22:26N 52°40' E 003°34'5 5.6
2016-Aug-21 21:33N 52°44' E 003°39'5 5.0
2016-Aug-21 20:33N 52°48' E 003°44'5 4.6
2016-Aug-21 19:33N 52°52' E 003°49'7 6.8
2016-Aug-21 18:33N 52°57' E 003°57'9 8.7
2016-Aug-21 17:33N 53°02' E 004°08'14 6.7
2016-Aug-21 15:29N 53°11' E 004°25'24 6.0
2016-Aug-21 11:32N 53°31' E 004°48'6 6.3
2016-Aug-21 10:33N 53°33' E 004°57'7 6.8
2016-Aug-21 09:34N 53°35' E 005°08'8 7.9
2016-Aug-21 08:34N 53°38' E 005°21'8 7.7
2016-Aug-21 07:34N 53°40' E 005°33'8 7.7
2016-Aug-21 06:34N 53°43' E 005°45'8 7.9
2016-Aug-21 05:33N 53°45' E 005°58'5 4.5
2016-Aug-21 04:33N 53°47' E 006°05'5 4.7
2016-Aug-21 03:34N 53°49' E 006°13'6 5.9
2016-Aug-21 02:33N 53°50' E 006°22'6 6.2
2016-Aug-21 01:33N 53°51' E 006°33'6 6.1
2016-Aug-21 00:33N 53°53' E 006°43'5 5.3
2016-Aug-20 23:33N 53°54' E 006°51'5 5.1
2016-Aug-20 22:33N 53°55' E 006°60'5 5.1
2016-Aug-20 21:33N 53°56' E 007°08'5 4.6
2016-Aug-20 20:33N 53°57' E 007°16'5 4.5
2016-Aug-20 19:34N 53°58' E 007°24'6 5.8
2016-Aug-20 18:34N 53°59' E 007°33'7 6.5
2016-Aug-20 17:33N 53°56' E 007°43'6 6.0
2016-Aug-20 16:33N 53°53' E 007°51'1716.7
2016-Aug-20 15:33N 53°44' E 008°15'1414.4
2016-Aug-20 14:34N 53°34' E 008°33'1 0.2
2016-Aug-20 09:06N 53°35' E 008°33'0 0.0
2016-Aug-20 06:24N 53°35' E 008°33'0 0.0
2016-Aug-20 03:30N 53°35' E 008°33'0 0.0
2016-Aug-20 01:18N 53°35' E 008°33'0 0.0
2016-Aug-20 00:30N 53°35' E 008°33'0 0.0
2016-Aug-19 23:18N 53°35' E 008°33'0 0.0
2016-Aug-19 21:24N 53°35' E 008°33'0 0.0
2016-Aug-19 20:24N 53°35' E 008°33'0 0.0
2016-Aug-19 13:24N 53°35' E 008°33'0 0.0
2016-Aug-19 11:18N 53°35' E 008°33'0 0.5
2016-Aug-19 10:33N 53°34' E 008°33'3 2.2
2016-Aug-19 09:25N 53°36' E 008°30'1213.8
2016-Aug-19 08:33N 53°44' E 008°15'1615.8
2016-Aug-19 07:33N 53°52' E 007°52'5 4.6
2016-Aug-19 06:33N 53°55' E 007°46'0 0.0
2016-Aug-19 05:30N 53°55' E 007°46'0 0.0
2016-Aug-19 04:30N 53°55' E 007°46'0 0.0
2016-Aug-19 03:33N 53°55' E 007°46'0 0.0
2016-Aug-19 02:33N 53°55' E 007°46'0 0.0
2016-Aug-19 01:33N 53°55' E 007°46'0 0.0
2016-Aug-19 00:33N 53°55' E 007°46'0 0.0
2016-Aug-18 23:33N 53°55' E 007°46'0 0.0
2016-Aug-18 22:33N 53°55' E 007°46'0 0.0
2016-Aug-18 21:33N 53°55' E 007°46'0 0.0
2016-Aug-18 20:33N 53°55' E 007°46'0 0.0
2016-Aug-18 19:33N 53°55' E 007°46'0 0.0
2016-Aug-18 18:30N 53°55' E 007°46'0 0.0
2016-Aug-18 17:33N 53°55' E 007°46'0 0.0
2016-Aug-18 16:30N 53°55' E 007°46'0 0.0
2016-Aug-18 15:33N 53°55' E 007°46'0 0.0
2016-Aug-18 14:33N 53°55' E 007°46'0 0.0
2016-Aug-18 13:33N 53°55' E 007°46'0 0.0
2016-Aug-18 12:30N 53°55' E 007°46'0 0.0
2016-Aug-18 11:33N 53°55' E 007°46'0 0.1
2016-Aug-18 10:30N 53°55' E 007°46'0 0.0
2016-Aug-18 09:33N 53°55' E 007°46'0 0.0
2016-Aug-18 08:30N 53°55' E 007°46'0 0.0
2016-Aug-18 07:33N 53°55' E 007°46'0 0.1
2016-Aug-18 06:33N 53°55' E 007°46'0 0.0
2016-Aug-18 05:30N 53°55' E 007°46'0 0.0
2016-Aug-18 04:33N 53°55' E 007°46'0 0.0
2016-Aug-18 03:33N 53°55' E 007°46'0 0.0
2016-Aug-18 02:30N 53°55' E 007°46'0 0.0
2016-Aug-18 01:33N 53°55' E 007°46'0 0.0
2016-Aug-18 00:33N 53°55' E 007°46'0 0.0
2016-Aug-17 23:33N 53°55' E 007°46'0 0.0
2016-Aug-17 22:33N 53°55' E 007°46'0 0.1
2016-Aug-17 21:30N 53°55' E 007°46'0 0.0
2016-Aug-17 20:33N 53°55' E 007°46'0 0.0
2016-Aug-17 19:33N 53°55' E 007°46'0 0.0
2016-Aug-17 18:30N 53°55' E 007°46'0 0.0
2016-Aug-17 17:30N 53°55' E 007°46'0 0.0
2016-Aug-17 16:30N 53°55' E 007°46'0 0.0
2016-Aug-17 15:33N 53°55' E 007°46'0 0.0
2016-Aug-17 14:30N 53°55' E 007°46'0 0.0
2016-Aug-17 13:30N 53°55' E 007°46'0 0.0
2016-Aug-17 12:30N 53°55' E 007°46'0 0.1
2016-Aug-17 11:33N 53°55' E 007°46'3 3.3
2016-Aug-17 10:33N 53°56' E 007°41'10 9.5
2016-Aug-17 09:33N 54°04' E 007°32'1010.2
2016-Aug-17 08:33N 54°13' E 007°24'1010.2
2016-Aug-17 07:33N 54°22' E 007°16'1211.7
2016-Aug-17 06:34N 54°33' E 007°07'1414.5
2016-Aug-17 05:33N 54°46' E 006°57'1110.6
2016-Aug-17 04:33N 54°55' E 006°48'1110.5
2016-Aug-17 03:33N 55°06' E 006°43'1010.5
2016-Aug-17 02:33N 55°16' E 006°43'1010.4
2016-Aug-17 01:33N 55°26' E 006°45'1010.4
2016-Aug-17 00:33N 55°37' E 006°45'1110.5
2016-Aug-16 23:33N 55°47' E 006°45'1110.7
2016-Aug-16 22:33N 55°58' E 006°45'1110.8
2016-Aug-16 21:33N 56°08' E 006°54'1111.0
2016-Aug-16 20:33N 56°17' E 007°06'1110.8
2016-Aug-16 19:34N 56°26' E 007°16'1110.6
2016-Aug-16 18:33N 56°35' E 007°27'1111.0
2016-Aug-16 17:33N 56°44' E 007°38'1110.8
2016-Aug-16 16:33N 56°53' E 007°48'1111.1
2016-Aug-16 15:33N 57°02' E 007°59'1111.0
2016-Aug-16 14:34N 57°12' E 008°09'  

Dump ship's entire track history